createdAt,value
2022-11-10T00:02:08.620Z,13.10
2022-11-10T00:04:55.307Z,13.80
2022-11-10T00:07:41.170Z,15.90
2022-11-10T00:10:26.654Z,11.73
2022-11-10T00:13:12.454Z,14.07
2022-11-10T00:16:21.344Z,10.93
2022-11-10T00:19:06.423Z,14.70
2022-11-10T00:21:51.828Z,16.97
2022-11-10T00:24:37.136Z,13.07
2022-11-10T00:27:22.512Z,14.93
2022-11-10T00:30:08.147Z,16.93
2022-11-10T00:32:53.223Z,14.67
2022-11-10T00:35:38.670Z,13.67
2022-11-10T00:38:31.057Z,15.33
2022-11-10T00:41:16.120Z,15.20
2022-11-10T00:44:01.611Z,14.43
2022-11-10T00:46:46.602Z,13.90
2022-11-10T00:49:32.167Z,10.67
2022-11-10T00:52:17.162Z,15.47
2022-11-10T00:55:02.449Z,22.83
2022-11-10T00:57:47.867Z,13.10
2022-11-10T01:00:33.631Z,18.73
2022-11-10T01:03:19.271Z,20.27
2022-11-10T01:06:06.194Z,13.97
2022-11-10T01:08:51.231Z,14.43
2022-11-10T01:11:36.358Z,16.70
2022-11-10T01:14:21.595Z,18.97
2022-11-10T01:17:06.973Z,22.20
2022-11-10T01:19:52.207Z,16.27
2022-11-10T01:22:38.760Z,26.37
2022-11-10T01:25:24.273Z,14.87
2022-11-10T01:28:09.494Z,17.07
2022-11-10T01:31:18.168Z,16.07
2022-11-10T01:34:03.147Z,15.10
2022-11-10T01:36:51.350Z,17.40
2022-11-10T01:39:36.467Z,16.60
2022-11-10T01:42:38.093Z,19.07
2022-11-10T01:45:23.931Z,12.60
2022-11-10T01:48:30.050Z,16.50
2022-11-10T01:51:28.198Z,17.97
2022-11-10T01:54:23.714Z,19.20
2022-11-10T01:57:11.769Z,17.33
2022-11-10T01:59:56.927Z,17.40
2022-11-10T02:03:35.003Z,16.83
2022-11-10T02:06:23.288Z,21.10
2022-11-10T02:09:08.639Z,19.73
2022-11-10T02:11:57.203Z,21.33
2022-11-10T02:14:42.505Z,22.53
2022-11-10T02:17:27.579Z,23.97
2022-11-10T02:20:21.390Z,26.47
2022-11-10T02:23:31.509Z,21.37
2022-11-10T02:26:21.119Z,27.30
2022-11-10T02:29:11.460Z,27.87
2022-11-10T02:31:59.741Z,21.33
2022-11-10T02:34:45.115Z,22.83
2022-11-10T02:37:30.470Z,19.83
2022-11-10T02:40:15.808Z,27.93
2022-11-10T02:43:01.414Z,18.33
2022-11-10T02:45:46.656Z,25.20
2022-11-10T02:48:32.104Z,26.10
2022-11-10T02:51:17.812Z,24.07
2022-11-10T02:54:03.120Z,19.90
2022-11-10T02:56:50.643Z,19.50
2022-11-10T02:59:35.764Z,22.73
2022-11-10T03:02:21.189Z,26.53
2022-11-10T03:05:06.684Z,23.93
2022-11-10T03:07:56.277Z,31.37
2022-11-10T03:10:41.304Z,23.50
2022-11-10T03:13:58.929Z,28.27
2022-11-10T03:16:44.607Z,27.37
2022-11-10T03:19:30.064Z,25.77
2022-11-10T03:22:15.692Z,24.60
2022-11-10T03:25:01.053Z,28.03
2022-11-10T03:27:46.594Z,27.77
2022-11-10T03:30:32.079Z,32.40
2022-11-10T03:33:17.536Z,27.00
2022-11-10T03:36:03.089Z,24.97
2022-11-10T03:38:48.648Z,28.03
2022-11-10T03:41:36.464Z,25.50
2022-11-10T03:44:21.675Z,32.00
2022-11-10T03:47:06.972Z,29.50
2022-11-10T03:49:52.445Z,25.63
2022-11-10T03:52:43.246Z,31.20
2022-11-10T03:55:28.452Z,27.20
2022-11-10T03:58:13.800Z,23.10
2022-11-10T04:00:59.204Z,33.03
2022-11-10T04:03:50.172Z,33.10
2022-11-10T04:06:55.195Z,36.97
2022-11-10T04:09:40.624Z,31.00
2022-11-10T04:12:44.545Z,29.57
2022-11-10T04:15:42.098Z,34.10
2022-11-10T04:18:30.166Z,28.80
2022-11-10T04:21:17.228Z,27.90
2022-11-10T04:24:03.025Z,32.50
2022-11-10T04:26:56.490Z,32.77
2022-11-10T04:29:41.597Z,29.27
2022-11-10T04:32:26.969Z,32.20
2022-11-10T04:35:13.265Z,28.20
2022-11-10T04:37:58.588Z,27.33
2022-11-10T04:40:43.974Z,31.83
2022-11-10T04:43:30.014Z,42.60
2022-11-10T04:46:31.638Z,34.20
2022-11-10T04:49:19.582Z,32.00
2022-11-10T04:52:05.171Z,25.67
2022-11-10T04:54:50.566Z,34.60
2022-11-10T04:57:36.203Z,37.97
2022-11-10T05:00:21.753Z,28.47
2022-11-10T05:03:09.273Z,31.43
2022-11-10T05:05:54.525Z,46.63
2022-11-10T05:08:40.897Z,30.83
2022-11-10T05:11:26.413Z,32.63
2022-11-10T05:14:11.793Z,31.10
2022-11-10T05:16:57.005Z,29.50
2022-11-10T05:19:42.466Z,34.53
2022-11-10T05:22:27.902Z,31.13
2022-11-10T05:25:13.385Z,33.77
2022-11-10T05:27:58.694Z,44.27
2022-11-10T05:30:44.283Z,33.50
2022-11-10T05:33:29.958Z,31.73
2022-11-10T05:36:15.246Z,29.57
2022-11-10T05:39:00.674Z,29.83
2022-11-10T05:41:47.387Z,35.33
2022-11-10T05:44:34.877Z,32.87
2022-11-10T05:47:22.728Z,40.27
2022-11-10T05:50:09.101Z,26.60
2022-11-10T05:52:55.306Z,31.13
2022-11-10T05:55:40.821Z,41.77
2022-11-10T05:58:26.081Z,47.63
2022-11-10T06:01:11.500Z,31.70
2022-11-10T06:03:56.984Z,37.50
2022-11-10T06:06:42.379Z,33.60
2022-11-10T06:09:27.678Z,32.57
2022-11-10T06:12:13.064Z,33.57
2022-11-10T06:14:58.487Z,29.60
2022-11-10T06:17:44.068Z,33.77
2022-11-10T06:20:29.621Z,40.23
2022-11-10T06:23:15.167Z,32.20
2022-11-10T06:26:00.253Z,33.20
2022-11-10T06:28:45.575Z,31.13
2022-11-10T06:31:30.929Z,28.07
2022-11-10T06:34:16.430Z,34.97
2022-11-10T06:37:01.982Z,38.50
2022-11-10T06:39:47.533Z,34.80
2022-11-10T06:42:33.431Z,33.57
2022-11-10T06:45:18.901Z,36.70
2022-11-10T06:48:11.875Z,38.07
2022-11-10T06:51:03.445Z,35.23
2022-11-10T06:53:48.705Z,37.47
2022-11-10T06:56:34.973Z,37.90
2022-11-10T06:59:20.276Z,34.20
2022-11-10T07:02:06.267Z,38.87
2022-11-10T07:04:51.243Z,38.23
2022-11-10T07:07:36.594Z,34.53
2022-11-10T07:10:21.864Z,27.57
2022-11-10T07:13:07.037Z,39.03
2022-11-10T07:15:52.598Z,37.57
2022-11-10T07:18:37.870Z,30.47
2022-11-10T07:21:23.188Z,33.40
2022-11-10T07:24:08.917Z,37.73
2022-11-10T07:26:54.003Z,29.27
2022-11-10T07:29:39.869Z,37.23
2022-11-10T07:32:25.234Z,33.00
2022-11-10T07:35:10.775Z,32.57
2022-11-10T07:38:04.585Z,26.90
2022-11-10T07:40:53.932Z,31.80
2022-11-10T07:43:38.995Z,30.30
2022-11-10T07:46:24.303Z,35.27
2022-11-10T07:49:09.813Z,29.77
2022-11-10T07:51:57.874Z,29.90
2022-11-10T07:54:43.180Z,28.40
2022-11-10T07:57:28.425Z,28.80
2022-11-10T08:00:16.805Z,29.10
2022-11-10T08:03:06.917Z,28.80
2022-11-10T08:05:52.174Z,29.40
2022-11-10T08:08:37.629Z,25.97
2022-11-10T08:11:23.054Z,23.43
2022-11-10T08:14:08.378Z,25.10
2022-11-10T08:17:00.371Z,25.97
2022-11-10T08:19:45.833Z,31.97
2022-11-10T08:22:31.295Z,33.43
2022-11-10T08:25:16.489Z,25.30
2022-11-10T08:28:07.978Z,28.47
2022-11-10T08:30:53.628Z,25.47
2022-11-10T08:33:38.678Z,33.23
2022-11-10T08:36:24.169Z,35.70
2022-11-10T08:39:09.704Z,27.20
2022-11-10T08:41:55.154Z,30.30
2022-11-10T08:44:40.718Z,38.40
2022-11-10T08:47:25.982Z,31.00
2022-11-10T08:50:14.295Z,39.17
2022-11-10T08:53:04.372Z,27.03
2022-11-10T08:55:50.310Z,27.20
2022-11-10T08:58:47.315Z,32.70
2022-11-10T09:01:35.432Z,31.70
2022-11-10T09:04:21.075Z,35.53
2022-11-10T09:07:06.209Z,30.50
2022-11-10T09:10:01.482Z,34.40
2022-11-10T09:12:52.030Z,29.37
2022-11-10T09:15:37.822Z,26.60
2022-11-10T09:18:22.948Z,33.30
2022-11-10T09:21:12.961Z,27.30
2022-11-10T09:23:58.446Z,36.90
2022-11-10T09:26:47.675Z,32.60
2022-11-10T09:29:33.011Z,25.60
2022-11-10T09:32:18.538Z,29.60
2022-11-10T09:35:04.122Z,27.83
2022-11-10T09:37:49.329Z,39.43
2022-11-10T09:41:02.934Z,25.03
2022-11-10T09:44:13.062Z,24.70
2022-11-10T09:47:04.906Z,22.90
2022-11-10T09:49:56.028Z,25.50
2022-11-10T09:52:45.198Z,29.57
2022-11-10T09:55:35.048Z,26.60
2022-11-10T09:58:23.685Z,27.03
2022-11-10T10:01:25.314Z,30.57
2022-11-10T10:04:54.214Z,26.83
2022-11-10T10:08:00.947Z,21.27
2022-11-10T10:11:21.747Z,26.97
2022-11-10T10:14:13.999Z,20.90
2022-11-10T10:17:24.772Z,20.50
2022-11-10T10:20:27.415Z,16.93
2022-11-10T10:23:16.748Z,20.07
2022-11-10T10:26:02.349Z,20.27
2022-11-10T10:29:38.779Z,18.33
2022-11-10T10:32:23.871Z,21.27
2022-11-10T10:35:29.675Z,19.23
2022-11-10T10:38:37.924Z,16.93
2022-11-10T10:41:28.579Z,22.63
2022-11-10T10:44:16.663Z,18.40
2022-11-10T10:47:02.989Z,22.70
2022-11-10T10:49:48.055Z,17.13
2022-11-10T10:52:33.508Z,19.40
2022-11-10T10:55:18.693Z,15.37
2022-11-10T10:58:22.897Z,25.27
2022-11-10T11:01:14.578Z,18.40
2022-11-10T11:04:01.015Z,16.77
2022-11-10T11:07:03.976Z,18.17
2022-11-10T11:09:51.125Z,16.83
2022-11-10T11:12:36.972Z,12.73
2022-11-10T11:15:28.468Z,17.13
2022-11-10T11:18:15.868Z,11.93
2022-11-10T11:21:07.060Z,16.07
2022-11-10T11:24:28.193Z,13.73
2022-11-10T11:27:47.845Z,12.27
2022-11-10T11:31:02.580Z,13.83
2022-11-10T11:34:01.913Z,17.57
2022-11-10T11:37:19.176Z,12.43
2022-11-10T11:40:05.612Z,10.13
2022-11-10T11:43:03.200Z,17.73
2022-11-10T11:46:09.551Z,10.30
2022-11-10T11:49:00.545Z,13.23
2022-11-10T11:52:02.857Z,9.37
2022-11-10T11:55:01.060Z,13.20
2022-11-10T11:58:12.678Z,9.33
2022-11-10T12:01:07.582Z,13.00
2022-11-10T12:04:36.741Z,18.87
2022-11-10T12:07:40.534Z,14.17
2022-11-10T12:10:44.774Z,11.83
2022-11-10T12:13:48.693Z,16.33
2022-11-10T12:16:35.152Z,9.00
2022-11-10T12:19:34.119Z,11.37
2022-11-10T12:22:48.836Z,15.30
2022-11-10T12:26:15.245Z,11.93
2022-11-10T12:29:12.581Z,14.90
2022-11-10T12:32:14.882Z,14.47
2022-11-10T12:35:11.353Z,21.97
2022-11-10T12:38:05.579Z,7.27
2022-11-10T12:40:54.294Z,18.80
2022-11-10T12:43:42.473Z,25.03
2022-11-10T12:46:27.802Z,15.00
2022-11-10T12:49:38.340Z,15.40
2022-11-10T12:52:52.779Z,12.00
2022-11-10T12:55:57.332Z,16.90
2022-11-10T12:58:42.374Z,13.90
2022-11-10T13:01:28.163Z,11.60
2022-11-10T13:04:14.900Z,8.07
2022-11-10T13:07:02.470Z,10.33
2022-11-10T13:09:50.471Z,12.67
2022-11-10T13:12:35.886Z,12.30
2022-11-10T13:15:39.511Z,12.40
2022-11-10T13:18:44.580Z,6.70
2022-11-10T13:21:53.830Z,13.70
2022-11-10T13:24:43.151Z,11.10
2022-11-10T13:27:35.841Z,24.20
2022-11-10T13:30:57.035Z,14.17
2022-11-10T13:34:04.797Z,13.13
2022-11-10T13:36:57.538Z,13.30
2022-11-10T13:39:45.501Z,15.03
2022-11-10T13:42:30.897Z,11.47
2022-11-10T13:45:45.669Z,15.93
2022-11-10T13:49:01.312Z,11.77
2022-11-10T13:52:08.484Z,17.07
2022-11-10T13:55:20.097Z,11.60
2022-11-10T13:58:09.074Z,15.23
2022-11-10T14:01:16.224Z,13.80
2022-11-10T14:04:03.030Z,9.80
2022-11-10T14:06:55.585Z,17.93
2022-11-10T14:09:50.092Z,16.33
2022-11-10T14:12:39.700Z,9.47
2022-11-10T14:15:34.723Z,8.80
2022-11-10T14:18:23.551Z,10.87
2022-11-10T14:21:20.821Z,11.90
2022-11-10T14:24:20.392Z,13.00
2022-11-10T14:27:11.635Z,15.50
2022-11-10T14:30:10.921Z,12.50
2022-11-10T14:33:11.825Z,12.60
2022-11-10T14:36:02.279Z,15.07
2022-11-10T14:38:47.993Z,9.20
2022-11-10T14:41:32.877Z,10.77
2022-11-10T14:44:26.702Z,14.60
2022-11-10T14:47:26.488Z,13.03
2022-11-10T14:50:14.547Z,13.37
2022-11-10T14:53:18.562Z,13.30
2022-11-10T14:56:06.765Z,13.83
2022-11-10T14:58:52.501Z,9.80
2022-11-10T15:01:40.627Z,10.27
2022-11-10T15:04:31.771Z,12.10
2022-11-10T15:07:17.782Z,11.13
2022-11-10T15:10:42.304Z,14.50
2022-11-10T15:13:27.398Z,11.30
2022-11-10T15:16:33.603Z,12.67
2022-11-10T15:19:34.569Z,8.57
2022-11-10T15:22:35.509Z,14.97
2022-11-10T15:25:35.716Z,13.27
2022-11-10T15:28:34.666Z,10.63
2022-11-10T15:31:26.515Z,13.10
2022-11-10T15:34:41.555Z,11.50
2022-11-10T15:37:31.130Z,16.43
2022-11-10T15:40:31.578Z,13.27
2022-11-10T15:43:27.008Z,14.77
2022-11-10T15:46:18.522Z,14.60
2022-11-10T15:49:04.068Z,15.47
2022-11-10T15:51:53.110Z,10.80
2022-11-10T15:54:38.559Z,12.40
2022-11-10T15:57:23.966Z,16.67
2022-11-10T16:00:19.665Z,13.63
2022-11-10T16:03:05.718Z,14.47
2022-11-10T16:05:51.362Z,9.47
2022-11-10T16:08:40.511Z,7.27
2022-11-10T16:11:26.807Z,12.67
2022-11-10T16:14:42.566Z,20.23
2022-11-10T16:17:28.134Z,17.80
2022-11-10T16:20:18.654Z,22.40
2022-11-10T16:23:03.773Z,10.67
2022-11-10T16:26:05.838Z,9.33
2022-11-10T16:28:59.980Z,11.07
2022-11-10T16:31:57.096Z,11.03
2022-11-10T16:34:43.686Z,15.27
2022-11-10T16:37:44.328Z,11.33
2022-11-10T16:40:37.772Z,14.60
2022-11-10T16:43:34.327Z,9.73
2022-11-10T16:46:21.060Z,13.13
2022-11-10T16:49:10.881Z,13.40
2022-11-10T16:52:23.815Z,15.30
2022-11-10T16:55:14.385Z,19.27
2022-11-10T16:58:00.334Z,11.30
2022-11-10T17:00:56.247Z,13.53
2022-11-10T17:03:50.788Z,13.60
2022-11-10T17:06:52.986Z,25.27
2022-11-10T17:09:43.622Z,13.53
2022-11-10T17:12:28.857Z,12.50
2022-11-10T17:15:30.707Z,15.03
2022-11-10T17:18:23.179Z,9.23
2022-11-10T17:21:12.474Z,15.93
2022-11-10T17:24:03.083Z,13.97
2022-11-10T17:26:48.658Z,16.20
2022-11-10T17:29:41.758Z,16.37
2022-11-10T17:33:10.011Z,15.27
2022-11-10T17:36:07.956Z,16.73
2022-11-10T17:38:57.755Z,16.03
2022-11-10T17:41:43.405Z,14.10
2022-11-10T17:44:29.171Z,17.30
2022-11-10T17:48:05.242Z,19.57
2022-11-10T17:51:26.943Z,11.70
2022-11-10T17:58:42.309Z,12.53
2022-11-10T18:01:48.328Z,16.60
2022-11-10T18:16:38.387Z,9.93
2022-11-10T18:19:23.645Z,10.03
2022-11-10T18:22:09.129Z,11.03
2022-11-10T18:24:54.610Z,10.83
2022-11-10T18:27:40.009Z,15.23
2022-11-10T18:30:25.366Z,10.60
2022-11-10T18:33:11.923Z,13.27
2022-11-10T18:36:00.381Z,7.10
2022-11-10T18:38:47.619Z,13.17
2022-11-10T18:41:53.680Z,15.77
2022-11-10T18:44:39.475Z,8.57
2022-11-10T18:47:24.398Z,9.20
2022-11-10T18:50:10.019Z,10.30
2022-11-10T18:52:55.083Z,13.13
2022-11-10T18:55:45.208Z,12.93
2022-11-10T18:58:31.045Z,10.57
2022-11-10T19:01:16.866Z,14.80
2022-11-10T19:04:02.380Z,9.93
2022-11-10T19:06:49.596Z,16.37
2022-11-10T19:09:35.092Z,14.63
2022-11-10T19:12:26.346Z,12.23
2022-11-10T19:15:11.925Z,11.90
2022-11-10T19:17:57.285Z,7.90
2022-11-10T19:20:42.679Z,11.73
2022-11-10T19:23:28.263Z,11.10
2022-11-10T19:26:19.408Z,11.03
2022-11-10T19:29:07.450Z,12.60
2022-11-10T19:31:52.660Z,11.57
2022-11-10T19:34:37.945Z,21.03
2022-11-10T19:37:23.216Z,13.00
2022-11-10T19:40:09.039Z,11.83
2022-11-10T19:42:54.399Z,9.50
2022-11-10T19:45:39.855Z,7.33
2022-11-10T19:48:25.393Z,10.67
2022-11-10T19:51:13.556Z,13.83
2022-11-10T19:54:04.968Z,12.50
2022-11-10T19:56:50.253Z,11.43
2022-11-10T19:59:35.781Z,10.40
2022-11-10T20:02:21.157Z,11.00
2022-11-10T20:05:12.359Z,14.73
2022-11-10T20:08:12.638Z,11.63
2022-11-10T20:11:06.120Z,8.77
2022-11-10T20:13:54.968Z,16.50
2022-11-10T20:16:40.565Z,8.63
2022-11-10T20:19:26.238Z,8.53
2022-11-10T20:22:12.850Z,11.33
2022-11-10T20:24:58.318Z,6.97
2022-11-10T20:27:43.975Z,11.43
2022-11-10T20:30:29.585Z,14.73
2022-11-10T20:33:14.770Z,11.13
2022-11-10T20:36:07.992Z,10.83
2022-11-10T20:38:54.885Z,12.00
2022-11-10T20:41:39.864Z,10.63
2022-11-10T20:44:25.408Z,6.10
2022-11-10T20:47:10.817Z,9.57
2022-11-10T20:49:56.251Z,8.80
2022-11-10T20:52:47.268Z,11.03
2022-11-10T20:55:52.674Z,8.80
2022-11-10T20:58:37.888Z,11.20
2022-11-10T21:01:23.594Z,10.80
2022-11-10T21:04:08.961Z,8.67
2022-11-10T21:06:54.651Z,9.17
2022-11-10T21:09:39.947Z,7.97
2022-11-10T21:12:43.867Z,5.60
2022-11-10T21:15:29.074Z,6.87
2022-11-10T21:18:14.680Z,8.20
2022-11-10T21:21:00.099Z,14.03
2022-11-10T21:23:45.207Z,15.03
2022-11-10T21:26:31.862Z,13.80
2022-11-10T21:29:16.920Z,6.50
2022-11-10T21:32:02.230Z,7.90
2022-11-10T21:34:47.520Z,11.97
2022-11-10T21:37:32.955Z,10.03
2022-11-10T21:40:18.364Z,7.30
2022-11-10T21:43:03.826Z,8.10
2022-11-10T21:45:49.159Z,10.03
2022-11-10T21:48:35.216Z,6.63
2022-11-10T21:51:21.259Z,8.83
2022-11-10T21:54:06.507Z,6.10
2022-11-10T21:56:54.173Z,10.60
2022-11-10T21:59:40.034Z,8.67
2022-11-10T22:02:26.004Z,7.20
2022-11-10T22:05:13.915Z,7.93
2022-11-10T22:07:59.288Z,10.53
2022-11-10T22:11:03.368Z,7.83
2022-11-10T22:14:08.127Z,8.87
2022-11-10T22:17:11.982Z,7.03
2022-11-10T22:19:57.419Z,7.27
2022-11-10T22:22:44.181Z,8.43
2022-11-10T22:25:29.270Z,5.90
2022-11-10T22:28:14.678Z,6.73
2022-11-10T22:31:03.174Z,12.27
2022-11-10T22:33:48.648Z,7.23
2022-11-10T22:36:34.094Z,7.43
2022-11-10T22:39:19.446Z,9.90
2022-11-10T22:42:30.233Z,6.43
2022-11-10T22:45:15.818Z,6.97
2022-11-10T22:48:19.687Z,8.87
2022-11-10T22:51:04.782Z,11.43
2022-11-10T22:53:50.661Z,8.87
2022-11-10T22:56:36.267Z,6.80
2022-11-10T22:59:21.486Z,7.03
2022-11-10T23:02:07.078Z,5.60
2022-11-10T23:04:52.686Z,5.07
2022-11-10T23:07:38.060Z,8.80
2022-11-10T23:10:23.405Z,11.37
2022-11-10T23:13:08.779Z,6.60
2022-11-10T23:15:58.632Z,9.70
2022-11-10T23:18:45.881Z,5.17
2022-11-10T23:21:31.267Z,6.67
2022-11-10T23:24:22.374Z,4.93
2022-11-10T23:27:07.952Z,10.07
2022-11-10T23:29:53.365Z,8.33
2022-11-10T23:32:38.914Z,7.27
2022-11-10T23:35:24.762Z,8.77
2022-11-10T23:38:09.830Z,7.17
2022-11-10T23:40:56.347Z,5.87
2022-11-10T23:43:42.353Z,6.63
2022-11-10T23:46:27.818Z,8.03
2022-11-10T23:49:13.182Z,10.47
2022-11-10T23:51:58.515Z,6.73
2022-11-10T23:54:43.860Z,6.80
2022-11-10T23:57:29.236Z,7.93
